Time;durP1;ratioP1;P1;durP2;ratioP2;P2;SDS_P1;SDS_P2;PMS_P1;PMS_P2;Temp;Humidity;BMP_temperature;BMP_pressure;BME280_temperature;BME280_humidity;BME280_pressure;Samples;Min_cycle;Max_cycle;Signal;HPM_P1;HPM_P2
2023/08/06 00:01:39;;;;;;;13.07;9.63;;;16.40;99.90;;;;;;5060565;22;20052;-47
2023/08/06 00:04:05;;;;;;;6.80;4.72;;;16.40;99.90;;;;;;5051838;28;20025;-44
2023/08/06 00:06:30;;;;;;;6.45;4.55;;;16.40;99.90;;;;;;5034541;28;20098;-44
2023/08/06 00:08:56;;;;;;;8.02;4.07;;;16.40;99.90;;;;;;5052053;28;20031;-46
2023/08/06 00:11:21;;;;;;;7.35;4.78;;;16.40;99.90;;;;;;5022517;28;20021;-44
2023/08/06 00:13:47;;;;;;;5.15;4.22;;;16.40;99.90;;;;;;5014314;28;20514;-44
2023/08/06 00:16:13;;;;;;;7.82;4.43;;;16.40;99.90;;;;;;5014149;28;20116;-44
2023/08/06 00:18:39;;;;;;;5.60;5.07;;;16.40;99.90;;;;;;5031791;28;20025;-46
2023/08/06 00:21:05;;;;;;;12.07;4.80;;;16.40;99.90;;;;;;5031462;28;20049;-45
2023/08/06 00:23:30;;;;;;;6.88;4.85;;;16.50;99.90;;;;;;5031581;28;20515;-49
2023/08/06 00:25:56;;;;;;;5.68;4.43;;;16.50;99.90;;;;;;5031626;28;20054;-43
2023/08/06 00:28:21;;;;;;;5.80;4.95;;;16.40;99.90;;;;;;5031443;28;20044;-44
2023/08/06 00:30:57;;;;;;;6.18;4.63;;;16.40;99.90;;;;;;5013803;28;20447;-44
2023/08/06 00:33:23;;;;;;;7.45;4.60;;;16.40;99.90;;;;;;5031544;28;20024;-45
2023/08/06 00:35:49;;;;;;;6.72;5.03;;;16.30;99.90;;;;;;5031370;28;20389;-45
2023/08/06 00:38:15;;;;;;;5.55;5.00;;;16.30;99.90;;;;;;5031496;28;20036;-46
2023/08/06 00:40:40;;;;;;;7.85;4.72;;;16.30;99.90;;;;;;5031132;28;20033;-43
2023/08/06 00:43:06;;;;;;;10.77;4.85;;;16.20;99.90;;;;;;5031452;28;20112;-43
2023/08/06 00:45:35;;;;;;;11.88;5.65;;;16.20;99.90;;;;;;5031395;28;20485;-43
2023/08/06 00:48:01;;;;;;;7.57;5.35;;;16.20;99.90;;;;;;5031285;28;20512;-43
2023/08/06 00:50:27;;;;;;;7.97;5.60;;;16.20;99.90;;;;;;5031263;28;20401;-44
2023/08/06 00:52:54;;;;;;;9.35;5.68;;;16.20;99.90;;;;;;5031281;28;20100;-40
2023/08/06 00:55:19;;;;;;;9.05;5.15;;;16.20;99.90;;;;;;5031560;28;20033;-48
2023/08/06 00:57:45;;;;;;;6.63;5.05;;;16.20;99.90;;;;;;5031173;28;20021;-47
2023/08/06 01:00:11;;;;;;;6.72;4.88;;;16.20;99.90;;;;;;5030874;28;20018;-43
2023/08/06 01:02:37;;;;;;;5.82;5.18;;;16.20;99.90;;;;;;5031185;28;20512;-42
2023/08/06 01:05:03;;;;;;;5.82;5.13;;;16.20;99.90;;;;;;5031114;28;20488;-45
2023/08/06 01:07:50;;;;;;;6.97;4.70;;;16.20;99.90;;;;;;5031021;28;20026;-47
2023/08/06 01:10:38;;;;;;;7.32;5.13;;;16.20;99.90;;;;;;5031198;28;20030;-42
2023/08/06 01:13:16;;;;;;;17.02;5.57;;;16.20;99.90;;;;;;5033836;28;20544;-43
2023/08/06 01:15:49;;;;;;;5.10;4.60;;;16.20;99.90;;;;;;5035513;28;20018;-43
2023/08/06 01:18:15;;;;;;;11.00;4.45;;;16.20;99.90;;;;;;5035685;28;20057;-44
2023/08/06 01:20:40;;;;;;;6.25;5.00;;;16.20;99.90;;;;;;5035171;28;20029;-44
2023/08/06 01:23:06;;;;;;;7.70;5.25;;;16.20;99.90;;;;;;5035233;28;20029;-41
2023/08/06 01:25:56;;;;;;;9.77;5.50;;;16.40;99.90;;;;;;5017492;28;20056;-42
2023/08/06 01:28:41;;;;;;;5.43;4.25;;;16.20;99.90;;;;;;5017322;28;20489;-43
2023/08/06 01:31:10;;;;;;;6.13;4.65;;;16.20;99.90;;;;;;5035083;28;20053;-43
2023/08/06 01:33:43;;;;;;;9.60;4.72;;;16.20;99.90;;;;;;5034828;28;20022;-46
2023/08/06 01:36:09;;;;;;;7.35;4.50;;;16.20;99.90;;;;;;5017250;28;20022;-43
2023/08/06 01:38:34;;;;;;;8.43;3.80;;;16.30;99.90;;;;;;5034828;28;20033;-43
2023/08/06 01:41:00;;;;;;;5.38;4.43;;;16.20;99.90;;;;;;5034474;28;20072;-43
2023/08/06 01:43:25;;;;;;;5.65;4.20;;;16.30;99.90;;;;;;5034660;28;20034;-41
2023/08/06 01:45:51;;;;;;;4.57;3.90;;;16.30;99.90;;;;;;5034564;28;20092;-43
2023/08/06 01:48:16;;;;;;;8.55;3.63;;;16.30;99.90;;;;;;5034506;28;20022;-43
2023/08/06 01:50:42;;;;;;;11.38;4.05;;;16.40;99.90;;;;;;5034149;28;20029;-45
2023/08/06 01:53:07;;;;;;;5.00;3.60;;;16.30;99.90;;;;;;5034525;28;20026;-46
2023/08/06 01:55:33;;;;;;;5.75;3.95;;;16.30;99.90;;;;;;5016722;28;20028;-44
2023/08/06 01:57:58;;;;;;;6.22;4.07;;;16.40;99.90;;;;;;5034473;28;20040;-43
2023/08/06 02:00:24;;;;;;;5.07;3.78;;;16.40;99.90;;;;;;5033976;28;20155;-43
2023/08/06 02:02:49;;;;;;;4.97;3.70;;;16.40;99.90;;;;;;5034328;28;20040;-42
2023/08/06 02:05:15;;;;;;;5.40;3.65;;;16.30;99.90;;;;;;5034161;28;20033;-42
2023/08/06 02:07:40;;;;;;;4.15;3.47;;;16.40;99.90;;;;;;5034181;28;20029;-43
2023/08/06 02:10:06;;;;;;;6.93;3.67;;;16.40;99.90;;;;;;5033864;28;20028;-45
2023/08/06 02:12:32;;;;;;;6.22;3.55;;;16.40;99.90;;;;;;5034168;28;20080;-47
2023/08/06 02:14:57;;;;;;;3.58;3.03;;;16.40;99.90;;;;;;5034070;28;20100;-44
2023/08/06 02:17:23;;;;;;;5.20;3.13;;;16.40;99.90;;;;;;5034100;28;20025;-44
2023/08/06 02:19:48;;;;;;;3.38;3.03;;;16.40;99.90;;;;;;5034192;28;20489;-48
2023/08/06 02:22:14;;;;;;;6.43;3.03;;;16.50;99.90;;;;;;5033818;28;20049;-45
2023/08/06 02:24:39;;;;;;;5.32;3.28;;;16.50;99.90;;;;;;5032624;28;20079;-44
2023/08/06 02:27:05;;;;;;;7.32;4.40;;;16.50;99.90;;;;;;5033866;28;20485;-45
2023/08/06 02:29:30;;;;;;;3.55;3.25;;;16.50;99.90;;;;;;5033856;28;20029;-46
2023/08/06 02:31:56;;;;;;;5.53;3.08;;;16.50;99.90;;;;;;5033749;28;20040;-41
2023/08/06 02:34:21;;;;;;;7.15;3.33;;;16.50;99.90;;;;;;5015912;28;20396;-42
2023/08/06 02:36:47;;;;;;;6.00;2.90;;;16.50;99.90;;;;;;5033619;28;20083;-47
2023/08/06 02:39:12;;;;;;;4.40;3.35;;;16.40;99.90;;;;;;5033397;28;20025;-42
2023/08/06 02:41:38;;;;;;;6.60;3.00;;;16.50;99.90;;;;;;5033552;28;20037;-44
2023/08/06 02:44:03;;;;;;;6.53;3.10;;;16.50;99.90;;;;;;5015806;28;20033;-45
2023/08/06 02:46:29;;;;;;;8.55;2.85;;;16.50;99.90;;;;;;5015694;28;20022;-42
2023/08/06 02:48:54;;;;;;;3.20;2.90;;;16.50;99.90;;;;;;5033217;28;20116;-41
2023/08/06 02:51:20;;;;;;;4.70;2.70;;;16.50;99.90;;;;;;5033411;28;20033;-42
2023/08/06 02:53:47;;;;;;;3.83;2.70;;;16.60;99.90;;;;;;5033443;28;20405;-42
2023/08/06 02:56:13;;;;;;;9.23;3.78;;;16.50;99.90;;;;;;5033315;28;20040;-42
2023/08/06 02:58:38;;;;;;;3.83;3.05;;;16.60;99.90;;;;;;5033227;28;20029;-40
2023/08/06 03:01:05;;;;;;;7.35;2.55;;;16.50;99.90;;;;;;5033008;28;20501;-39
2023/08/06 03:03:31;;;;;;;6.82;2.95;;;16.50;99.90;;;;;;5033372;28;20072;-39
2023/08/06 03:05:57;;;;;;;3.30;2.90;;;16.50;99.90;;;;;;5033177;28;20108;-39
2023/08/06 03:08:22;;;;;;;3.53;3.10;;;16.50;99.90;;;;;;5015362;28;20113;-42
2023/08/06 03:10:49;;;;;;;3.72;2.95;;;16.40;99.90;;;;;;5032760;28;20406;-42
2023/08/06 03:13:15;;;;;;;5.30;2.92;;;16.40;99.90;;;;;;5033052;28;20389;-42
2023/08/06 03:15:40;;;;;;;4.13;3.08;;;16.40;99.90;;;;;;5032853;28;20076;-43
2023/08/06 03:18:06;;;;;;;3.97;2.90;;;16.40;99.90;;;;;;5032875;28;20026;-41
2023/08/06 03:20:32;;;;;;;2.53;2.33;;;16.30;99.90;;;;;;5032666;28;20030;-41
2023/08/06 03:22:58;;;;;;;3.05;2.75;;;16.30;99.90;;;;;;5032782;28;20033;-41
2023/08/06 03:25:23;;;;;;;3.35;2.58;;;16.30;99.90;;;;;;5032808;28;20550;-40
2023/08/06 03:27:49;;;;;;;4.65;2.80;;;16.30;99.90;;;;;;5032549;28;20040;-42
2023/08/06 03:30:14;;;;;;;3.33;2.50;;;16.20;99.90;;;;;;5032668;28;20345;-42
2023/08/06 03:32:40;;;;;;;3.13;2.78;;;16.20;99.90;;;;;;5014953;28;20018;-41
2023/08/06 03:35:06;;;;;;;5.78;2.80;;;16.20;99.90;;;;;;5032205;28;20040;-41
2023/08/06 03:37:31;;;;;;;4.50;3.00;;;16.20;99.90;;;;;;5032677;28;20017;-46
2023/08/06 03:39:57;;;;;;;5.10;2.65;;;16.20;99.90;;;;;;5032282;28;20029;-40
2023/08/06 03:42:22;;;;;;;4.13;2.83;;;16.10;99.90;;;;;;5032525;28;20393;-41
2023/08/06 03:44:48;;;;;;;8.38;2.92;;;16.10;99.90;;;;;;5032348;28;20038;-45
2023/08/06 03:47:13;;;;;;;2.85;2.63;;;16.10;99.90;;;;;;5032533;28;20029;-46
2023/08/06 03:49:39;;;;;;;4.85;2.65;;;16.10;99.90;;;;;;5031797;28;20068;-43
2023/08/06 03:52:05;;;;;;;3.80;2.58;;;16.10;99.90;;;;;;5032266;28;20068;-42
2023/08/06 03:54:31;;;;;;;3.67;2.45;;;16.10;99.90;;;;;;5014693;28;20484;-40
2023/08/06 03:56:56;;;;;;;2.53;2.33;;;16.10;99.90;;;;;;5032175;28;20030;-42
2023/08/06 03:59:22;;;;;;;5.57;2.20;;;16.10;99.90;;;;;;5031953;28;20034;-41
2023/08/06 04:01:47;;;;;;;1.98;1.80;;;16.20;99.90;;;;;;5014266;28;20038;-40
2023/08/06 04:04:13;;;;;;;4.68;1.73;;;16.10;99.90;;;;;;5032000;28;20026;-40
2023/08/06 04:06:38;;;;;;;2.67;1.40;;;16.20;99.90;;;;;;5031976;28;20029;-45
2023/08/06 04:09:04;;;;;;;3.00;1.65;;;16.10;99.90;;;;;;5031932;28;20029;-43
2023/08/06 04:11:29;;;;;;;7.22;2.25;;;16.10;99.90;;;;;;5032217;28;20030;-42
2023/08/06 04:13:55;;;;;;;3.42;1.67;;;16.10;99.90;;;;;;5014170;28;20401;-43
2023/08/06 04:16:21;;;;;;;2.50;1.60;;;16.00;99.90;;;;;;5031897;28;20021;-45
2023/08/06 04:18:47;;;;;;;2.83;2.22;;;16.00;99.90;;;;;;5031690;28;20559;-40
2023/08/06 04:21:12;;;;;;;2.85;1.50;;;16.00;99.90;;;;;;5031691;28;20056;-40
2023/08/06 04:23:38;;;;;;;6.05;1.60;;;15.90;99.90;;;;;;5031786;28;20463;-43
2023/08/06 04:26:03;;;;;;;2.80;1.35;;;15.90;99.90;;;;;;5031871;28;20523;-42
2023/08/06 04:28:29;;;;;;;2.42;1.20;;;15.80;99.90;;;;;;5032064;28;20512;-41
2023/08/06 04:30:55;;;;;;;2.67;1.85;;;15.80;99.90;;;;;;5013927;28;20018;-38
2023/08/06 04:33:20;;;;;;;3.55;1.50;;;15.70;99.90;;;;;;5031497;28;20072;-40
2023/08/06 04:35:46;;;;;;;2.35;1.67;;;15.60;99.90;;;;;;5031463;28;20097;-40
2023/08/06 04:38:11;;;;;;;3.35;1.42;;;15.60;99.90;;;;;;5031536;28;20419;-42
2023/08/06 04:40:37;;;;;;;2.88;1.60;;;15.60;99.90;;;;;;5031306;28;20032;-40
2023/08/06 04:43:02;;;;;;;4.45;1.48;;;15.60;99.90;;;;;;5031535;28;20108;-38
2023/08/06 04:45:28;;;;;;;4.72;1.38;;;15.60;99.90;;;;;;5031578;28;20025;-41
2023/08/06 04:47:54;;;;;;;1.52;1.42;;;15.60;99.90;;;;;;5030687;28;20037;-42
2023/08/06 04:50:20;;;;;;;2.70;1.65;;;15.60;99.90;;;;;;5031283;28;20018;-40
2023/08/06 04:52:45;;;;;;;6.15;2.50;;;15.60;99.90;;;;;;5031420;28;20034;-39
2023/08/06 04:55:11;;;;;;;4.72;1.92;;;15.60;99.90;;;;;;5031463;28;20028;-39
2023/08/06 04:57:36;;;;;;;1.70;1.60;;;15.60;99.90;;;;;;5031477;28;20362;-41
2023/08/06 05:00:04;;;;;;;7.63;2.40;;;15.60;99.90;;;;;;5031054;28;20025;-41
2023/08/06 05:02:31;;;;;;;5.93;1.75;;;15.60;99.90;;;;;;5031649;28;20440;-45
2023/08/06 05:04:58;;;;;;;5.15;1.92;;;15.60;99.90;;;;;;5032610;28;20029;-41
2023/08/06 05:07:23;;;;;;;2.72;2.13;;;15.60;99.90;;;;;;5031272;28;20033;-41
2023/08/06 05:09:49;;;;;;;4.63;1.90;;;15.50;99.90;;;;;;5031050;28;20366;-46
2023/08/06 05:12:14;;;;;;;3.58;2.33;;;15.60;99.90;;;;;;5031126;28;20391;-41
2023/08/06 05:14:40;;;;;;;2.53;1.50;;;15.60;99.90;;;;;;5013446;28;20022;-40
2023/08/06 05:17:05;;;;;;;3.35;2.13;;;15.60;99.90;;;;;;5030978;28;20049;-45
2023/08/06 05:19:31;;;;;;;3.97;1.90;;;15.50;99.90;;;;;;5030899;28;20036;-39
2023/08/06 05:21:56;;;;;;;1.88;1.60;;;15.50;99.90;;;;;;5030953;28;20034;-40
2023/08/06 05:24:22;;;;;;;1.52;1.25;;;15.50;99.90;;;;;;5031176;28;20104;-40
2023/08/06 05:26:47;;;;;;;3.65;1.48;;;15.50;99.90;;;;;;5031045;28;20064;-42
2023/08/06 05:29:13;;;;;;;7.53;1.40;;;15.50;99.90;;;;;;5030855;28;20076;-43
2023/08/06 05:31:39;;;;;;;2.58;1.00;;;15.60;99.90;;;;;;5030794;28;20060;-41
2023/08/06 05:34:04;;;;;;;2.42;0.88;;;15.50;99.90;;;;;;5013272;28;20021;-41
2023/08/06 05:36:29;;;;;;;1.00;0.65;;;15.50;99.90;;;;;;5031057;28;20026;-41
2023/08/06 05:38:55;;;;;;;1.75;0.80;;;15.40;99.90;;;;;;5013158;28;20611;-44
2023/08/06 05:41:20;;;;;;;1.67;0.57;;;15.40;99.90;;;;;;5013156;28;20128;-46
2023/08/06 05:43:46;;;;;;;2.58;0.60;;;15.40;99.90;;;;;;5030856;28;20040;-44
2023/08/06 05:46:12;;;;;;;1.95;0.70;;;15.40;99.90;;;;;;5030807;28;20114;-41
2023/08/06 05:48:37;;;;;;;1.48;0.50;;;15.40;99.90;;;;;;5030374;28;20099;-38
2023/08/06 05:51:03;;;;;;;1.52;0.70;;;15.40;99.90;;;;;;5034721;28;20056;-44
2023/08/06 05:53:28;;;;;;;0.57;0.45;;;15.50;99.90;;;;;;5032593;28;20485;-41
2023/08/06 05:55:54;;;;;;;1.38;0.70;;;15.50;99.90;;;;;;5031161;28;20059;-40
2023/08/06 05:58:24;;;;;;;1.25;0.60;;;15.60;99.90;;;;;;5014182;28;20025;-44
2023/08/06 06:00:49;;;;;;;2.88;0.70;;;15.60;99.90;;;;;;5016917;28;20060;-42
2023/08/06 06:03:15;;;;;;;0.43;0.43;;;15.70;99.90;;;;;;5035266;28;20021;-45
2023/08/06 06:05:40;;;;;;;0.90;0.47;;;15.70;99.90;;;;;;5019375;28;20061;-40
2023/08/06 06:08:06;;;;;;;0.75;0.60;;;15.70;99.90;;;;;;5038475;28;20060;-40
2023/08/06 06:10:32;;;;;;;4.47;0.65;;;15.80;99.90;;;;;;5019138;28;20025;-42
2023/08/06 06:12:57;;;;;;;3.83;0.60;;;15.80;99.90;;;;;;5034693;28;20025;-46
2023/08/06 06:15:23;;;;;;;1.95;0.73;;;15.80;99.90;;;;;;5034018;28;20501;-43
2023/08/06 06:17:48;;;;;;;1.55;0.60;;;15.70;99.90;;;;;;5034121;28;20029;-42
2023/08/06 06:20:14;;;;;;;1.08;0.73;;;15.80;99.90;;;;;;5033521;28;20100;-45
2023/08/06 06:22:39;;;;;;;2.70;0.50;;;15.80;99.90;;;;;;5034081;28;20021;-44
2023/08/06 06:25:05;;;;;;;1.63;0.50;;;15.70;99.90;;;;;;5033975;28;20393;-43
2023/08/06 06:27:31;;;;;;;1.17;0.68;;;15.80;99.90;;;;;;5034011;28;20021;-45
2023/08/06 06:29:56;;;;;;;0.40;0.40;;;15.90;99.90;;;;;;5033816;28;20038;-43
2023/08/06 06:32:22;;;;;;;0.60;0.50;;;15.90;99.90;;;;;;5034000;28;20025;-45
2023/08/06 06:34:48;;;;;;;3.05;0.65;;;15.90;99.90;;;;;;5033678;28;20508;-42
2023/08/06 06:37:13;;;;;;;3.90;1.98;;;15.90;99.90;;;;;;5035265;28;20033;-42
2023/08/06 06:39:39;;;;;;;2.20;1.00;;;16.00;99.90;;;;;;5035154;28;20505;-42
2023/08/06 06:42:05;;;;;;;0.60;0.50;;;16.00;99.90;;;;;;5035224;28;20051;-44
2023/08/06 06:44:30;;;;;;;1.85;0.52;;;15.90;99.90;;;;;;5034212;28;20401;-45
2023/08/06 06:46:56;;;;;;;0.40;0.40;;;15.90;99.90;;;;;;5034887;28;20033;-42
2023/08/06 06:49:21;;;;;;;0.93;0.45;;;15.90;99.90;;;;;;5034147;28;20056;-42
2023/08/06 06:51:47;;;;;;;1.33;0.30;;;15.90;99.90;;;;;;5033698;28;20400;-47
2023/08/06 06:54:12;;;;;;;0.40;0.40;;;15.90;99.90;;;;;;5033845;28;20029;-43
2023/08/06 06:56:38;;;;;;;1.70;0.50;;;15.90;99.90;;;;;;5032689;28;20072;-46
2023/08/06 06:59:03;;;;;;;1.88;0.77;;;15.80;99.90;;;;;;5033332;28;20547;-46
2023/08/06 07:01:29;;;;;;;0.40;0.40;;;15.80;99.90;;;;;;5016074;28;20179;-45
2023/08/06 07:03:55;;;;;;;0.52;0.52;;;15.90;99.90;;;;;;5033520;28;20037;-46
2023/08/06 07:06:20;;;;;;;0.73;0.40;;;15.90;99.90;;;;;;5015842;28;20030;-49
2023/08/06 07:08:46;;;;;;;0.95;0.40;;;15.80;99.90;;;;;;5033504;28;20040;-41
2023/08/06 07:11:11;;;;;;;2.55;0.50;;;15.80;99.90;;;;;;5032727;28;20450;-46
2023/08/06 07:13:37;;;;;;;1.00;0.73;;;15.80;99.90;;;;;;5015498;28;20022;-40
2023/08/06 07:16:03;;;;;;;1.20;0.40;;;15.70;99.90;;;;;;5032620;28;20104;-45
2023/08/06 07:18:28;;;;;;;2.08;0.30;;;15.80;99.90;;;;;;5033032;28;20083;-42
2023/08/06 07:20:55;;;;;;;1.23;0.98;;;15.70;99.90;;;;;;5032781;28;20029;-44
2023/08/06 07:23:22;;;;;;;0.40;0.40;;;15.70;99.90;;;;;;5033407;28;20036;-43
2023/08/06 07:25:47;;;;;;;0.55;0.50;;;15.70;99.90;;;;;;5032905;28;20049;-43
2023/08/06 07:28:14;;;;;;;1.30;0.50;;;15.80;99.90;;;;;;5032701;28;20076;-42
2023/08/06 07:30:41;;;;;;;1.23;0.68;;;15.70;99.90;;;;;;5032301;28;20095;-43
2023/08/06 07:33:06;;;;;;;1.85;0.68;;;15.70;99.90;;;;;;5032818;28;20061;-47
2023/08/06 07:35:32;;;;;;;0.40;0.40;;;15.60;99.90;;;;;;5032318;28;20053;-42
2023/08/06 07:37:57;;;;;;;0.80;0.50;;;15.60;99.90;;;;;;5032672;28;20214;-44
2023/08/06 07:40:23;;;;;;;1.70;0.50;;;15.70;99.90;;;;;;5032388;28;20030;-42
2023/08/06 07:42:49;;;;;;;0.52;0.52;;;15.60;99.90;;;;;;5032637;28;20366;-46
2023/08/06 07:45:14;;;;;;;8.48;6.75;;;15.70;99.90;;;;;;5031698;28;20030;-42
2023/08/06 07:47:40;;;;;;;7.32;6.15;;;15.70;99.90;;;;;;5032376;28;20131;-42
2023/08/06 07:50:06;;;;;;;0.65;0.60;;;15.70;99.90;;;;;;5031779;28;20029;-43
2023/08/06 07:52:32;;;;;;;3.38;2.03;;;15.70;99.90;;;;;;5032171;28;20030;-45
2023/08/06 07:54:58;;;;;;;14.20;9.43;;;15.70;99.90;;;;;;5032205;28;20025;-44
2023/08/06 07:57:23;;;;;;;7.40;4.20;;;15.90;99.90;;;;;;5033261;28;20018;-48
2023/08/06 07:59:49;;;;;;;0.80;0.80;;;15.90;99.90;;;;;;5031878;28;20029;-46
2023/08/06 08:02:15;;;;;;;0.80;0.60;;;16.00;99.90;;;;;;5029507;28;20083;-43
2023/08/06 08:04:40;;;;;;;1.90;0.68;;;16.10;99.90;;;;;;5031652;28;20037;-43
2023/08/06 08:07:06;;;;;;;0.60;0.60;;;16.20;99.90;;;;;;5030929;28;20033;-46
2023/08/06 08:09:31;;;;;;;1.88;0.60;;;16.40;99.90;;;;;;5031315;28;20477;-47
2023/08/06 08:11:57;;;;;;;1.95;0.60;;;16.50;99.90;;;;;;5031172;28;20432;-45
2023/08/06 08:14:23;;;;;;;0.55;0.50;;;16.70;99.90;;;;;;5031938;28;20029;-46
2023/08/06 08:16:48;;;;;;;1.75;0.70;;;16.80;99.90;;;;;;5030741;28;20049;-45
2023/08/06 08:19:14;;;;;;;1.27;0.50;;;17.00;99.90;;;;;;5031616;28;20064;-49
2023/08/06 08:21:39;;;;;;;0.90;0.60;;;17.70;99.90;;;;;;5030653;28;20397;-48
2023/08/06 08:24:05;;;;;;;0.40;0.40;;;18.90;99.90;;;;;;5031932;28;20041;-49
2023/08/06 08:26:30;;;;;;;0.50;0.40;;;19.70;99.90;;;;;;5031655;28;20057;-46
2023/08/06 08:28:56;;;;;;;3.00;0.40;;;20.20;99.90;;;;;;5031601;28;20033;-49
2023/08/06 08:31:22;;;;;;;2.20;0.50;;;20.50;99.90;;;;;;5031597;28;20022;-46
2023/08/06 08:33:47;;;;;;;1.05;0.38;;;21.10;99.90;;;;;;5031652;28;20667;-45
2023/08/06 08:36:13;;;;;;;0.40;0.38;;;21.60;99.90;;;;;;5031429;28;20021;-45
2023/08/06 08:38:38;;;;;;;0.63;0.35;;;21.20;99.90;;;;;;5031388;28;20044;-44
2023/08/06 08:41:04;;;;;;;1.38;0.40;;;20.90;99.90;;;;;;5031327;28;20389;-45
2023/08/06 08:43:30;;;;;;;1.90;0.30;;;20.60;99.90;;;;;;5031658;28;20037;-45
2023/08/06 08:45:58;;;;;;;0.73;0.43;;;20.50;99.90;;;;;;5031346;28;20370;-47
2023/08/06 08:48:24;;;;;;;0.50;0.50;;;20.00;99.90;;;;;;5031272;28;20029;-45
2023/08/06 08:50:50;;;;;;;0.32;0.32;;;19.50;99.90;;;;;;5030901;28;20032;-45
2023/08/06 08:53:17;;;;;;;1.80;0.40;;;19.10;99.90;;;;;;5013573;28;20436;-45
2023/08/06 08:55:46;;;;;;;2.20;0.52;;;18.80;99.90;;;;;;5031375;28;20026;-45
2023/08/06 08:58:12;;;;;;;0.20;0.20;;;18.60;99.90;;;;;;5031548;28;20028;-52
2023/08/06 09:00:39;;;;;;;1.98;0.20;;;18.60;99.90;;;;;;5031236;28;20037;-49
2023/08/06 09:03:06;;;;;;;2.55;0.20;;;18.90;99.90;;;;;;5031173;28;20489;-45
2023/08/06 09:05:32;;;;;;;0.40;0.20;;;19.50;99.90;;;;;;5031405;28;20120;-45
2023/08/06 09:08:03;;;;;;;0.20;0.20;;;19.50;99.90;;;;;;5031337;28;20076;-45
2023/08/06 09:10:29;;;;;;;0.32;0.32;;;19.30;99.90;;;;;;5030904;28;20029;-46
2023/08/06 09:13:00;;;;;;;0.52;0.30;;;19.00;99.90;;;;;;5031118;28;20025;-45
2023/08/06 09:15:27;;;;;;;1.15;0.28;;;18.80;99.90;;;;;;5030871;28;20036;-44
2023/08/06 09:17:53;;;;;;;0.77;0.22;;;18.70;99.90;;;;;;5030916;28;20018;-45
2023/08/06 09:20:19;;;;;;;1.08;0.20;;;18.60;99.90;;;;;;5013815;28;20022;-45
2023/08/06 09:22:45;;;;;;;0.20;0.20;;;18.60;99.90;;;;;;5031631;28;20420;-45
2023/08/06 09:25:13;;;;;;;0.20;0.20;;;18.50;99.90;;;;;;5031271;28;20048;-46
2023/08/06 09:27:39;;;;;;;2.65;0.43;;;18.30;99.90;;;;;;5030969;28;20100;-48
2023/08/06 09:30:08;;;;;;;1.55;0.50;;;18.00;99.90;;;;;;5030676;28;20112;-45
2023/08/06 09:32:52;;;;;;;0.20;0.20;;;17.80;99.90;;;;;;5031234;28;20525;-45
2023/08/06 09:35:18;;;;;;;0.50;0.50;;;17.60;99.90;;;;;;5034723;28;20037;-46
2023/08/06 09:37:44;;;;;;;0.30;0.30;;;17.30;99.90;;;;;;5034647;28;20101;-44
2023/08/06 09:40:29;;;;;;;1.42;0.30;;;17.10;99.90;;;;;;5034765;28;20392;-45
2023/08/06 09:42:55;;;;;;;0.50;0.50;;;17.00;99.90;;;;;;5034727;28;20509;-46
2023/08/06 09:45:22;;;;;;;1.10;0.40;;;16.90;99.90;;;;;;5034628;28;20378;-47
2023/08/06 09:47:48;;;;;;;0.80;0.40;;;17.00;99.90;;;;;;5034435;28;20026;-45
2023/08/06 09:50:18;;;;;;;1.10;0.25;;;17.00;99.90;;;;;;5034550;28;20080;-45
2023/08/06 09:52:44;;;;;;;0.50;0.30;;;17.10;99.90;;;;;;5034697;28;20052;-45
2023/08/06 09:55:12;;;;;;;0.50;0.50;;;17.20;99.90;;;;;;5034513;28;20393;-47
2023/08/06 09:57:38;;;;;;;0.52;0.52;;;17.30;99.90;;;;;;5034350;28;20026;-48
2023/08/06 10:00:04;;;;;;;0.88;0.40;;;17.40;99.90;;;;;;5033967;28;20043;-45
2023/08/06 10:02:33;;;;;;;0.40;0.40;;;17.50;99.90;;;;;;5034702;28;20060;-47
2023/08/06 10:04:59;;;;;;;0.32;0.32;;;17.80;99.90;;;;;;5034342;28;20520;-45
2023/08/06 10:07:25;;;;;;;0.40;0.40;;;18.10;99.90;;;;;;5034048;28;20486;-46
2023/08/06 10:09:50;;;;;;;0.63;0.30;;;18.30;99.90;;;;;;5034085;28;20110;-48
2023/08/06 10:12:19;;;;;;;1.52;0.60;;;18.30;99.90;;;;;;5033725;28;20108;-47
2023/08/06 10:14:46;;;;;;;0.93;0.40;;;18.30;99.90;;;;;;5034075;28;20105;-47
2023/08/06 10:17:12;;;;;;;0.40;0.40;;;18.30;99.90;;;;;;5033077;28;20029;-44
2023/08/06 10:19:38;;;;;;;0.98;0.40;;;18.20;99.90;;;;;;5033682;28;20038;-45
2023/08/06 10:22:13;;;;;;;0.95;0.30;;;18.20;99.90;;;;;;5016264;28;20029;-45
2023/08/06 10:24:53;;;;;;;0.30;0.30;;;18.10;99.90;;;;;;5017018;28;20022;-45
2023/08/06 10:27:22;;;;;;;0.30;0.20;;;18.20;99.90;;;;;;5014258;28;20041;-49
2023/08/06 10:29:48;;;;;;;0.30;0.20;;;18.30;99.90;;;;;;5013872;28;20030;-46
2023/08/06 10:32:14;;;;;;;27.05;17.38;;;18.50;99.90;;;;;;5013933;28;20041;-51
2023/08/06 10:35:00;;;;;;;9.57;7.15;;;18.80;99.90;;;;;;5013819;28;20072;-49
2023/08/06 10:37:36;;;;;;;0.63;0.40;;;19.00;99.90;;;;;;5017626;28;20030;-48
2023/08/06 10:40:02;;;;;;;0.75;0.30;;;19.00;99.90;;;;;;5025167;28;20439;-49
2023/08/06 10:42:29;;;;;;;0.28;0.28;;;19.20;99.90;;;;;;5032515;28;20021;-45
2023/08/06 10:45:15;;;;;;;0.65;0.30;;;19.30;99.90;;;;;;5032152;28;20084;-48
2023/08/06 10:47:41;;;;;;;0.47;0.20;;;19.50;99.90;;;;;;5033303;28;20037;-47
2023/08/06 10:50:17;;;;;;;0.30;0.30;;;19.70;99.90;;;;;;5033369;28;20029;-48
2023/08/06 10:52:44;;;;;;;0.25;0.25;;;19.80;99.90;;;;;;5033278;28;20018;-49
2023/08/06 10:55:10;;;;;;;0.20;0.20;;;20.00;99.90;;;;;;5033324;28;20496;-47
2023/08/06 10:57:36;;;;;;;3.22;0.20;;;19.90;99.90;;;;;;5033097;28;20029;-46
2023/08/06 11:00:06;;;;;;;0.57;0.30;;;19.90;99.90;;;;;;5032778;28;20033;-47
2023/08/06 11:02:36;;;;;;;2.40;0.20;;;19.90;99.90;;;;;;5033588;28;20033;-48
2023/08/06 11:05:09;;;;;;;0.45;0.22;;;19.70;99.90;;;;;;5032872;28;20026;-47
2023/08/06 11:07:35;;;;;;;0.70;0.40;;;19.70;99.90;;;;;;5033125;28;20025;-48
2023/08/06 11:10:06;;;;;;;0.20;0.20;;;19.50;99.90;;;;;;5032718;28;20104;-45
2023/08/06 11:12:33;;;;;;;3.13;0.20;;;19.40;99.90;;;;;;5032927;28;20119;-48
2023/08/06 11:14:59;;;;;;;0.20;0.20;;;19.00;99.90;;;;;;5033118;28;20112;-47
2023/08/06 11:17:25;;;;;;;1.45;0.20;;;18.90;99.90;;;;;;5015044;28;20018;-48
2023/08/06 11:19:52;;;;;;;1.20;0.30;;;18.80;99.90;;;;;;5032778;28;20032;-48
2023/08/06 11:22:18;;;;;;;0.28;0.20;;;18.80;99.90;;;;;;5029568;28;20022;-46
2023/08/06 11:24:43;;;;;;;1.35;0.28;;;18.30;99.90;;;;;;5012954;28;20080;-50
2023/08/06 11:27:16;;;;;;;0.80;0.10;;;18.10;99.90;;;;;;5012873;28;20494;-49
2023/08/06 11:29:43;;;;;;;0.93;0.20;;;17.90;99.90;;;;;;5013371;28;20053;-46
2023/08/06 11:32:09;;;;;;;0.20;0.20;;;17.90;99.90;;;;;;5013417;28;20021;-47
2023/08/06 11:34:36;;;;;;;0.17;0.17;;;17.90;99.90;;;;;;5013764;28;20030;-45
2023/08/06 11:37:05;;;;;;;0.20;0.20;;;18.00;99.90;;;;;;5014009;28;20029;-47
2023/08/06 11:39:34;;;;;;;1.27;0.30;;;18.00;99.90;;;;;;4994737;28;20448;-45
2023/08/06 11:42:02;;;;;;;0.10;0.10;;;18.00;99.90;;;;;;5012502;28;20030;-49
2023/08/06 11:44:32;;;;;;;2.28;0.20;;;17.90;99.90;;;;;;5012681;28;20412;-50
2023/08/06 11:46:59;;;;;;;0.68;0.30;;;17.90;99.90;;;;;;5013288;28;20021;-52
2023/08/06 11:49:38;;;;;;;0.60;0.38;;;17.90;99.90;;;;;;5012324;28;20482;-50
2023/08/06 11:52:23;;;;;;;0.20;0.20;;;17.80;99.90;;;;;;5012882;28;20393;-50
2023/08/06 11:55:08;;;;;;;2.30;0.30;;;17.70;99.90;;;;;;5012552;28;20026;-47
2023/08/06 11:57:35;;;;;;;0.40;0.28;;;17.70;99.90;;;;;;5012411;28;20034;-48
2023/08/06 12:00:05;;;;;;;0.55;0.30;;;17.70;99.90;;;;;;5025615;28;20026;-45
2023/08/06 12:02:35;;;;;;;1.60;0.38;;;17.70;99.90;;;;;;5031164;28;20114;-41
2023/08/06 12:05:25;;;;;;;1.02;0.30;;;17.70;99.90;;;;;;5031985;28;20560;-43
2023/08/06 12:07:53;;;;;;;0.20;0.20;;;17.70;99.90;;;;;;5031793;28;20025;-43
2023/08/06 12:10:20;;;;;;;1.10;0.32;;;17.70;99.90;;;;;;5031138;28;20029;-46
2023/08/06 12:12:46;;;;;;;0.30;0.30;;;17.60;99.90;;;;;;5031518;28;20389;-53
2023/08/06 12:15:11;;;;;;;0.35;0.35;;;17.40;99.90;;;;;;5031628;28;20026;-45
2023/08/06 12:17:38;;;;;;;1.00;0.45;;;17.30;99.90;;;;;;5031605;28;20029;-42
2023/08/06 12:20:05;;;;;;;2.65;0.65;;;17.30;99.90;;;;;;5031484;28;20053;-48
2023/08/06 12:22:34;;;;;;;2.97;0.50;;;17.30;99.90;;;;;;5056705;22;20040;-51
2023/08/06 12:25:07;;;;;;;0.70;0.70;;;17.30;99.90;;;;;;5007933;28;20045;-48
2023/08/06 12:27:37;;;;;;;0.70;0.70;;;17.40;99.90;;;;;;5011432;28;20378;-53
2023/08/06 12:30:04;;;;;;;3.33;0.63;;;17.50;99.90;;;;;;5011743;28;20042;-48
2023/08/06 12:32:30;;;;;;;0.50;0.50;;;17.50;99.90;;;;;;4994203;28;20079;-50
2023/08/06 12:34:55;;;;;;;0.45;0.45;;;17.40;99.90;;;;;;5012049;28;20472;-54
2023/08/06 12:37:21;;;;;;;0.30;0.30;;;17.40;99.90;;;;;;5011922;28;20068;-50
2023/08/06 12:39:47;;;;;;;0.43;0.30;;;17.40;99.90;;;;;;5011605;28;20025;-52
2023/08/06 12:42:13;;;;;;;2.40;0.47;;;17.40;99.90;;;;;;4993919;28;20088;-49
2023/08/06 12:44:38;;;;;;;0.50;0.50;;;17.60;99.90;;;;;;5011507;28;20451;-52